Time;durP1;ratioP1;P1;durP2;ratioP2;P2;SDS_P1;SDS_P2;PMS_P1;PMS_P2;Temp;Humidity;BMP_temperature;BMP_pressure;BME280_temperature;BME280_humidity;BME280_pressure;Samples;Min_cycle;Max_cycle;Signal;HPM_P1;HPM_P2
2022/08/13 00:01:26;;;;;;;5.70;3.00;;;;;;;22.80;46.55;100199.06;5081851;28;20024;-75
2022/08/13 00:03:55;;;;;;;7.22;3.35;;;;;;;22.80;46.80;100199.91;5071878;28;20687;-75
2022/08/13 00:07:07;;;;;;;4.18;3.42;;;;;;;22.81;46.60;100204.28;5072957;28;20025;-75
2022/08/13 00:09:09;;;;;;;7.28;3.67;;;;;;;22.80;46.74;100191.81;5074286;28;20082;-75
2022/08/13 00:14:23;;;;;;;3.85;2.45;;;;;;;22.73;46.92;100195.44;5073878;28;20176;-75
2022/08/13 00:16:50;;;;;;;6.85;3.70;;;;;;;22.67;47.08;100194.31;5069954;28;20049;-75
2022/08/13 00:19:19;;;;;;;6.30;3.05;;;;;;;22.69;47.21;100198.50;5069680;28;20039;-75
2022/08/13 00:21:44;;;;;;;5.05;2.95;;;;;;;22.69;47.21;100192.28;5069835;28;20071;-75
2022/08/13 00:24:10;;;;;;;5.22;2.67;;;;;;;22.70;46.90;100192.09;5069698;28;20230;-76
2022/08/13 00:26:35;;;;;;;5.30;3.63;;;;;;;22.71;47.07;100198.34;5069750;28;20088;-75
2022/08/13 00:29:01;;;;;;;5.70;2.60;;;;;;;22.71;47.10;100190.25;5070488;28;20266;-76
2022/08/13 00:31:28;;;;;;;6.50;3.10;;;;;;;22.70;47.21;100191.25;5072507;28;20273;-75
2022/08/13 00:33:54;;;;;;;5.10;3.03;;;;;;;22.67;47.33;100192.44;5072677;28;20183;-76
2022/08/13 00:36:21;;;;;;;7.88;3.25;;;;;;;22.63;47.19;100188.47;5070156;28;20033;-76
2022/08/13 00:38:48;;;;;;;6.25;3.40;;;;;;;22.58;47.38;100185.47;5072537;28;20028;-75
2022/08/13 00:41:37;;;;;;;7.95;3.33;;;;;;;22.54;47.56;100189.56;5070099;28;20055;-75
2022/08/13 00:44:00;;;;;;;5.25;2.95;;;;;;;22.55;47.41;100183.13;5069249;28;20297;-76
2022/08/13 00:46:26;;;;;;;4.97;2.80;;;;;;;22.57;47.39;100185.66;5077608;28;20225;-75
2022/08/13 00:48:53;;;;;;;6.03;2.90;;;;;;;22.58;47.46;100179.22;5093785;28;20023;-75
2022/08/13 00:51:21;;;;;;;6.82;3.78;;;;;;;22.59;47.38;100180.91;5072881;28;20261;-76
2022/08/13 00:53:48;;;;;;;5.65;3.15;;;;;;;22.59;47.53;100179.06;5069174;28;20052;-76
2022/08/13 00:56:13;;;;;;;7.50;3.20;;;;;;;22.58;47.56;100179.22;5069190;28;20074;-76
2022/08/13 00:58:40;;;;;;;6.05;2.72;;;;;;;22.56;47.51;100174.03;5070136;28;20020;-76
2022/08/13 01:01:07;;;;;;;4.53;3.13;;;;;;;22.55;47.54;100181.28;5082966;28;20052;-75
2022/08/13 01:03:36;;;;;;;4.75;2.70;;;;;;;22.56;47.63;100176.72;5072882;28;20032;-75
2022/08/13 01:06:04;;;;;;;7.05;3.25;;;;;;;22.57;47.48;100177.56;5068998;28;20031;-76
2022/08/13 01:08:32;;;;;;;6.47;2.97;;;;;;;22.54;47.71;100176.91;5087418;28;20040;-75
2022/08/13 01:11:06;;;;;;;8.98;3.42;;;;;;;22.55;47.51;100173.22;5070127;28;20024;-76
2022/08/13 01:13:36;;;;;;;5.22;3.17;;;;;;;22.57;47.62;100174.88;5087449;28;20020;-76
2022/08/13 01:16:04;;;;;;;9.93;4.63;;;;;;;22.54;47.91;100167.97;5068868;28;20029;-76
2022/08/13 01:18:31;;;;;;;6.13;3.88;;;;;;;22.50;47.87;100167.50;5068695;28;20048;-76
2022/08/13 01:21:09;;;;;;;7.45;3.50;;;;;;;22.45;47.84;100167.22;5068728;28;20024;-76
2022/08/13 01:23:35;;;;;;;6.15;3.35;;;;;;;22.43;47.99;100163.03;5068645;28;20025;-76
2022/08/13 01:26:01;;;;;;;7.07;3.47;;;;;;;22.45;47.98;100167.22;5068650;28;20046;-76
2022/08/13 01:28:28;;;;;;;5.82;2.95;;;;;;;22.45;47.93;100161.00;5069414;28;20238;-76
2022/08/13 01:31:04;;;;;;;4.60;3.17;;;;;;;22.44;48.10;100164.72;5076011;28;20044;-76
2022/08/13 01:33:30;;;;;;;4.43;3.03;;;;;;;22.40;47.88;100170.44;5067604;28;20144;-76
2022/08/13 01:35:56;;;;;;;6.00;3.05;;;;;;;22.40;48.25;100169.63;5083534;28;20028;-76
2022/08/13 01:38:23;;;;;;;3.75;2.80;;;;;;;22.41;48.01;100168.59;5088343;28;20035;-76
2022/08/13 01:40:49;;;;;;;8.45;3.05;;;;;;;22.42;48.20;100164.06;5073087;28;20089;-76
2022/08/13 01:43:15;;;;;;;5.78;3.08;;;;;;;22.40;48.07;100164.22;5072487;28;20060;-76
2022/08/13 01:45:43;;;;;;;8.07;3.38;;;;;;;22.40;48.05;100167.75;5072219;28;20021;-76
2022/08/13 01:51:06;;;;;;;9.82;3.55;;;;;;;22.40;48.24;100164.22;5014805;28;20026;-76
2022/08/13 01:53:31;;;;;;;5.22;3.42;;;;;;;22.42;48.14;100161.38;5068232;28;20238;-76
2022/08/13 01:55:58;;;;;;;7.50;3.10;;;;;;;22.38;48.37;100166.25;5071613;28;20027;-76
2022/08/13 01:58:26;;;;;;;6.32;2.85;;;;;;;22.37;48.20;100173.50;5071881;28;20153;-76
2022/08/13 02:00:57;;;;;;;6.70;3.10;;;;;;;22.39;48.37;100159.84;5068023;28;20028;-76
2022/08/13 02:03:24;;;;;;;6.88;3.00;;;;;;;22.37;48.25;100161.88;5067918;28;20115;-76
2022/08/13 02:05:50;;;;;;;6.70;3.28;;;;;;;22.35;48.29;100164.75;5080559;28;20027;-76
2022/08/13 02:08:22;;;;;;;5.07;3.35;;;;;;;22.34;48.24;100160.41;5105283;28;20040;-76
2022/08/13 02:10:50;;;;;;;6.57;3.75;;;;;;;22.31;48.46;100154.50;5058623;28;20028;-75
2022/08/13 02:13:23;;;;;;;5.38;3.22;;;;;;;22.29;48.56;100157.41;5071627;28;20036;-76
2022/08/13 02:15:49;;;;;;;5.07;3.10;;;;;;;22.32;48.47;100157.03;5067791;28;20052;-75
2022/08/13 02:18:18;;;;;;;6.15;3.00;;;;;;;22.31;48.44;100157.22;5067673;28;20184;-76
2022/08/13 02:20:46;;;;;;;5.72;3.15;;;;;;;22.33;48.49;100158.72;5079257;28;20020;-75
2022/08/13 02:23:19;;;;;;;5.85;2.92;;;;;;;22.33;48.47;100158.72;5086633;28;20126;-76
2022/08/13 02:25:45;;;;;;;5.78;3.30;;;;;;;22.31;48.62;100157.22;5067222;28;20036;-75
2022/08/13 02:28:14;;;;;;;4.63;3.20;;;;;;;22.28;48.57;100152.22;5067548;28;20277;-75
2022/08/13 02:30:41;;;;;;;7.50;3.20;;;;;;;22.28;48.77;100152.22;5071334;28;20020;-76
2022/08/13 02:33:07;;;;;;;5.40;3.40;;;;;;;22.30;48.88;100166.31;5067495;28;20037;-77
2022/08/13 02:35:35;;;;;;;6.63;3.17;;;;;;;22.30;48.71;100160.94;5067524;28;20031;-77
2022/08/13 02:38:02;;;;;;;5.60;3.63;;;;;;;22.29;48.71;100157.41;5067670;28;20057;-76
2022/08/13 02:43:12;;;;;;;5.18;3.53;;;;;;;22.25;48.87;100156.94;5083286;28;20059;-76
2022/08/13 02:45:39;;;;;;;7.13;3.85;;;;;;;22.23;48.82;100153.59;5087477;28;20125;-76
2022/08/13 02:48:07;;;;;;;6.88;3.30;;;;;;;22.24;48.68;100166.03;5087435;28;20198;-76
2022/08/13 02:50:41;;;;;;;7.88;3.50;;;;;;;22.25;48.75;100170.41;5085733;28;20028;-76
2022/08/13 02:53:07;;;;;;;7.63;4.35;;;;;;;22.25;48.85;100164.16;5085651;28;20029;-76
2022/08/13 02:55:33;;;;;;;8.57;3.97;;;;;;;22.27;48.94;100161.31;5067861;28;20021;-77
2022/08/13 02:57:59;;;;;;;8.40;3.67;;;;;;;22.29;48.71;100161.94;5087389;28;20083;-77
2022/08/13 03:00:24;;;;;;;8.13;3.92;;;;;;;22.29;48.80;100161.94;5074629;28;20149;-77
2022/08/13 03:02:51;;;;;;;8.63;4.07;;;;;;;22.30;48.78;100163.63;5074439;28;20031;-76
2022/08/13 03:05:19;;;;;;;7.25;3.78;;;;;;;22.30;48.95;100172.56;5087279;28;20234;-77
2022/08/13 03:07:47;;;;;;;11.32;3.72;;;;;;;22.29;48.92;100167.34;5085309;28;20028;-76
2022/08/13 03:10:15;;;;;;;7.70;3.60;;;;;;;22.33;48.93;100168.66;5068274;28;20249;-77
2022/08/13 03:12:48;;;;;;;6.95;4.22;;;;;;;22.34;48.93;100167.63;5067161;28;20021;-77
2022/08/13 03:15:15;;;;;;;7.07;3.90;;;;;;;22.36;48.76;100162.91;5067089;28;20036;-77
2022/08/13 03:17:43;;;;;;;10.95;4.05;;;;;;;22.39;48.97;100168.75;5067417;28;20047;-76
2022/08/13 03:20:15;;;;;;;9.00;3.88;;;;;;;22.43;48.72;100165.75;5082235;28;20024;-77
2022/08/13 03:22:54;;;;;;;7.38;3.67;;;;;;;22.43;48.88;100161.16;5085466;28;20212;-76
2022/08/13 03:25:22;;;;;;;7.43;4.22;;;;;;;22.41;48.90;100163.19;5067949;28;20039;-77
2022/08/13 03:27:48;;;;;;;10.82;4.30;;;;;;;22.42;49.02;100162.22;5069345;28;20040;-76
2022/08/13 03:30:16;;;;;;;7.95;3.83;;;;;;;22.43;48.88;100160.34;5074543;28;20035;-77
2022/08/13 03:32:44;;;;;;;8.57;3.83;;;;;;;22.42;49.01;100167.59;5067041;28;20029;-77
2022/08/13 03:35:28;;;;;;;6.38;3.42;;;;;;;22.51;49.01;100160.25;5067722;28;20024;-76
2022/08/13 03:37:55;;;;;;;12.18;3.97;;;;;;;22.56;48.61;100174.03;5070696;28;20016;-77
2022/08/13 03:40:23;;;;;;;8.55;4.05;;;;;;;22.62;48.66;100167.06;5070598;28;20237;-76
2022/08/13 03:42:49;;;;;;;6.70;3.88;;;;;;;22.66;48.57;100165.66;5070629;28;20025;-76
2022/08/13 03:45:17;;;;;;;8.30;4.63;;;;;;;22.69;48.33;100166.13;5073911;28;20028;-77
2022/08/13 03:47:44;;;;;;;7.47;3.70;;;;;;;22.73;48.58;100169.28;5090606;28;20032;-77
2022/08/13 03:50:12;;;;;;;5.82;3.80;;;;;;;22.76;48.82;100166.22;5090428;28;20105;-77
2022/08/13 03:52:38;;;;;;;13.75;4.60;;;;;;;22.85;48.52;100167.81;5090426;28;20059;-76
2022/08/13 03:55:08;;;;;;;11.25;4.45;;;;;;;22.89;48.59;100170.97;5079302;28;20039;-75
2022/08/13 03:57:34;;;;;;;6.70;3.65;;;;;;;22.91;48.59;100168.09;5070340;28;20028;-75
2022/08/13 04:00:00;;;;;;;8.30;3.97;;;;;;;22.94;48.82;100176.63;5079653;28;20021;-76
2022/08/13 04:02:28;;;;;;;12.02;4.65;;;;;;;23.00;48.67;100164.28;5084636;28;20037;-76
2022/08/13 04:04:54;;;;;;;8.75;3.97;;;;;;;23.05;48.92;100156.44;5070165;28;20103;-76
2022/08/13 04:07:20;;;;;;;16.92;4.88;;;;;;;23.08;48.74;100166.88;5079562;28;20059;-75
2022/08/13 04:09:46;;;;;;;14.48;5.30;;;;;;;23.12;48.60;100164.63;5079326;28;20033;-76
2022/08/13 04:12:12;;;;;;;11.40;4.93;;;;;;;23.14;48.38;100159.88;5070099;28;20299;-76
2022/08/13 04:14:39;;;;;;;13.48;4.90;;;;;;;23.17;48.14;100154.94;5073804;28;20032;-75
2022/08/13 04:17:10;;;;;;;6.30;3.70;;;;;;;23.18;48.04;100153.09;5071880;28;20037;-75
2022/08/13 04:19:40;;;;;;;8.88;3.65;;;;;;;23.20;47.74;100153.78;5070929;28;20146;-76
2022/08/13 04:22:08;;;;;;;9.52;3.65;;;;;;;23.23;47.59;100158.81;5052423;28;20143;-76
2022/08/13 04:24:34;;;;;;;9.70;4.22;;;;;;;23.30;47.84;100162.41;5072851;28;20036;-76
2022/08/13 04:27:00;;;;;;;14.20;4.65;;;;;;;23.34;48.20;100151.22;5070783;28;20024;-75
2022/08/13 04:29:26;;;;;;;12.35;4.38;;;;;;;23.36;47.97;100147.31;5074418;28;20025;-76
2022/08/13 04:31:52;;;;;;;8.07;4.45;;;;;;;23.41;48.11;100154.84;5069688;28;20229;-76
2022/08/13 04:34:25;;;;;;;9.57;4.07;;;;;;;23.51;48.04;100143.72;5070616;28;20024;-75
2022/08/13 04:36:51;;;;;;;11.30;4.55;;;;;;;23.59;48.28;100146.31;5089686;28;20058;-75
2022/08/13 04:39:17;;;;;;;9.63;4.35;;;;;;;23.66;47.79;100146.41;5089324;28;20092;-75
2022/08/13 04:41:43;;;;;;;10.23;3.70;;;;;;;23.71;48.14;100144.78;5089545;28;20104;-76
2022/08/13 04:44:08;;;;;;;12.25;4.97;;;;;;;23.74;47.79;100147.09;5089455;28;20213;-76
2022/08/13 04:46:34;;;;;;;8.25;4.47;;;;;;;23.80;47.13;100147.34;5088680;28;20024;-76
2022/08/13 04:48:59;;;;;;;12.57;5.03;;;;;;;23.95;46.73;100142.72;5087570;28;20026;-75
2022/08/13 04:51:25;;;;;;;7.60;4.20;;;;;;;24.25;46.49;100137.16;5073256;28;20040;-75
2022/08/13 04:53:51;;;;;;;15.05;4.93;;;;;;;24.46;45.84;100138.97;5073140;28;20024;-75
2022/08/13 04:56:17;;;;;;;9.98;5.13;;;;;;;24.65;45.56;100140.13;5069260;28;20035;-76
2022/08/13 04:58:43;;;;;;;12.27;5.25;;;;;;;24.88;44.95;100143.63;5069237;28;20029;-75
2022/08/13 05:01:10;;;;;;;9.40;5.80;;;;;;;25.10;43.94;100141.63;5078456;28;20036;-76
2022/08/13 05:03:41;;;;;;;10.77;5.28;;;;;;;25.36;43.42;100143.63;5079759;28;20020;-76
2022/08/13 05:06:11;;;;;;;11.18;4.80;;;;;;;25.59;42.99;100143.28;5069330;28;20051;-75
2022/08/13 05:08:38;;;;;;;11.68;5.28;;;;;;;25.84;42.63;100136.47;5085042;28;20044;-75
2022/08/13 05:11:05;;;;;;;11.55;5.25;;;;;;;26.06;42.25;100128.97;5068994;28;20157;-75
2022/08/13 05:13:37;;;;;;;11.23;5.18;;;;;;;26.26;41.70;100123.56;5068842;28;20025;-75
2022/08/13 05:16:08;;;;;;;13.35;4.82;;;;;;;26.40;41.59;100135.22;5068914;28;20092;-75
2022/08/13 05:18:37;;;;;;;6.97;4.10;;;;;;;26.49;41.28;100138.53;5071658;28;20098;-75
2022/08/13 05:21:05;;;;;;;7.22;4.00;;;;;;;26.58;40.43;100131.00;5073199;28;20016;-75
2022/08/13 05:23:34;;;;;;;6.40;3.45;;;;;;;26.64;40.31;100132.88;5072580;28;20021;-75
2022/08/13 05:26:00;;;;;;;12.88;3.75;;;;;;;26.71;40.31;100133.69;5068622;28;20025;-75
2022/08/13 05:28:26;;;;;;;8.70;4.25;;;;;;;26.78;40.16;100134.53;5068868;28;20059;-74
2022/08/13 05:30:52;;;;;;;10.48;3.47;;;;;;;26.83;40.47;100128.47;5083590;28;20044;-75
2022/08/13 05:33:23;;;;;;;7.38;3.67;;;;;;;26.89;40.18;100132.22;5088487;28;20031;-75
2022/08/13 05:35:52;;;;;;;8.88;3.88;;;;;;;26.96;39.86;100128.44;5088504;28;20188;-75
2022/08/13 05:38:22;;;;;;;9.88;4.28;;;;;;;27.07;39.49;100124.22;5083036;28;20059;-75
2022/08/13 05:40:52;;;;;;;6.05;4.07;;;;;;;27.12;39.54;100129.00;5072148;28;20212;-75
2022/08/13 05:43:21;;;;;;;12.98;4.38;;;;;;;27.11;39.79;100133.59;5068329;28;20024;-75
2022/08/13 05:45:57;;;;;;;6.45;4.10;;;;;;;27.15;39.78;100135.88;5068241;28;20021;-75
2022/08/13 05:48:27;;;;;;;7.28;3.97;;;;;;;27.18;39.67;100135.44;5068186;28;20024;-75
2022/08/13 05:50:53;;;;;;;8.57;4.45;;;;;;;27.24;39.39;100140.03;5068095;28;20036;-75
2022/08/13 05:53:19;;;;;;;8.93;3.58;;;;;;;27.25;39.49;100141.69;5068102;28;20027;-76
2022/08/13 05:55:45;;;;;;;6.07;3.70;;;;;;;27.26;39.35;100138.75;5069860;28;20096;-76
2022/08/13 05:58:12;;;;;;;6.40;3.40;;;;;;;27.23;39.40;100141.88;5085460;28;20040;-76
2022/08/13 06:03:25;;;;;;;6.53;3.28;;;;;;;27.16;39.33;100140.25;5067957;28;20075;-76
2022/08/13 06:05:58;;;;;;;4.18;3.13;;;;;;;27.01;39.70;100141.34;5050533;28;20027;-76
2022/08/13 06:08:29;;;;;;;7.13;2.72;;;;;;;26.79;40.04;100140.81;5084621;28;20036;-76
2022/08/13 06:10:59;;;;;;;4.22;3.05;;;;;;;26.50;40.67;100130.22;5070611;28;20306;-75
2022/08/13 06:13:26;;;;;;;4.85;2.50;;;;;;;26.30;40.89;100137.53;5071673;28;20047;-75
2022/08/13 06:15:58;;;;;;;4.68;2.80;;;;;;;26.16;41.18;100134.81;5071712;28;20053;-75
2022/08/13 06:18:35;;;;;;;6.40;2.17;;;;;;;26.08;41.40;100140.44;5067692;28;20045;-75
2022/08/13 06:21:04;;;;;;;4.97;2.90;;;;;;;26.00;41.52;100143.34;5053839;28;20078;-74
2022/08/13 06:23:32;;;;;;;6.35;3.05;;;;;;;25.94;41.71;100146.91;5074887;28;20043;-74
2022/08/13 06:25:59;;;;;;;4.10;2.55;;;;;;;25.89;41.87;100147.50;5069506;28;20024;-74
2022/08/13 06:28:28;;;;;;;8.63;2.13;;;;;;;25.85;42.13;100138.13;5067847;28;20284;-74
2022/08/13 06:30:55;;;;;;;3.20;2.20;;;;;;;25.82;41.68;100142.06;5067606;28;20268;-75
2022/08/13 06:33:21;;;;;;;6.13;2.38;;;;;;;25.80;41.55;100146.88;5071270;28;20020;-73
2022/08/13 06:35:50;;;;;;;2.85;1.85;;;;;;;25.82;41.30;100144.78;5068504;28;20107;-74
2022/08/13 06:38:22;;;;;;;5.65;2.55;;;;;;;25.82;41.30;100155.63;5085193;28;20032;-74
2022/08/13 06:40:48;;;;;;;8.32;2.05;;;;;;;25.83;40.77;100149.16;5073611;28;20012;-74
2022/08/13 06:43:17;;;;;;;3.58;1.73;;;;;;;25.81;40.84;100153.94;5070398;28;20009;-74
2022/08/13 06:45:42;;;;;;;3.58;1.65;;;;;;;25.80;40.81;100162.31;5078559;28;20020;-76
2022/08/13 06:48:09;;;;;;;3.15;2.08;;;;;;;25.77;41.37;100158.13;5085737;28;20027;-76
2022/08/13 06:50:37;;;;;;;9.93;2.60;;;;;;;25.77;41.52;100160.00;5087382;28;20245;-77
2022/08/13 06:53:07;;;;;;;4.35;2.00;;;;;;;25.75;41.42;100160.22;5081894;28;20073;-77
2022/08/13 06:55:36;;;;;;;6.90;2.50;;;;;;;25.73;41.39;100163.13;5067245;28;20245;-77
2022/08/13 06:58:08;;;;;;;3.15;1.75;;;;;;;25.70;41.30;100152.72;5067270;28;20237;-76
2022/08/13 07:00:35;;;;;;;5.30;1.63;;;;;;;25.70;41.23;100152.72;5067210;28;20059;-77
2022/08/13 07:03:02;;;;;;;4.80;1.98;;;;;;;25.68;40.98;100154.78;5068326;28;20073;-78
2022/08/13 07:05:35;;;;;;;4.18;1.83;;;;;;;25.67;41.22;100157.69;5072938;28;20028;-76
2022/08/13 07:08:04;;;;;;;3.30;1.95;;;;;;;25.66;41.19;100153.34;5082191;28;20271;-76
2022/08/13 07:10:31;;;;;;;6.40;2.15;;;;;;;25.66;40.94;100153.34;5073733;28;20025;-76
2022/08/13 07:12:57;;;;;;;3.58;2.00;;;;;;;25.65;41.11;100155.19;5071214;28;20020;-76
2022/08/13 07:15:23;;;;;;;4.97;2.30;;;;;;;25.64;40.76;100158.94;5071041;28;20013;-76
2022/08/13 07:17:50;;;;;;;2.92;1.88;;;;;;;25.66;40.52;100147.91;5071004;28;20138;-75
2022/08/13 07:20:17;;;;;;;4.47;2.10;;;;;;;25.67;40.76;100152.25;5070998;28;20021;-77
2022/08/13 07:22:44;;;;;;;5.18;2.35;;;;;;;25.67;40.47;100146.84;5070937;28;20020;-78
2022/08/13 07:25:10;;;;;;;8.23;2.72;;;;;;;25.66;40.43;100145.19;5077538;28;20119;-76
2022/08/13 07:27:41;;;;;;;6.20;2.30;;;;;;;25.67;39.88;100142.28;5070877;28;20031;-76
2022/08/13 07:30:08;;;;;;;6.75;2.28;;;;;;;25.66;39.65;100145.19;5070826;28;20050;-77
2022/08/13 07:32:37;;;;;;;6.00;2.72;;;;;;;25.65;39.18;100138.94;5070745;28;20033;-77
2022/08/13 07:35:04;;;;;;;14.02;2.50;;;;;;;25.61;39.70;100147.69;5079501;28;20077;-78
2022/08/13 07:37:30;;;;;;;9.60;2.30;;;;;;;25.56;39.53;100141.00;5091022;28;20028;-76
2022/08/13 07:39:56;;;;;;;6.38;2.00;;;;;;;25.53;39.09;100146.00;5088999;28;20072;-76
2022/08/13 07:42:22;;;;;;;3.85;1.95;;;;;;;25.51;39.13;100138.09;5090735;28;20040;-76
2022/08/13 07:44:52;;;;;;;4.13;2.75;;;;;;;25.48;39.39;100138.50;5090617;28;20026;-76
2022/08/13 07:47:19;;;;;;;5.05;2.63;;;;;;;25.48;39.10;100143.06;5090576;28;20088;-76
2022/08/13 07:49:46;;;;;;;7.72;2.50;;;;;;;25.44;39.30;100132.63;5082716;28;20035;-76
2022/08/13 07:52:14;;;;;;;6.50;2.03;;;;;;;25.44;39.29;100137.22;5074375;28;20021;-76
2022/08/13 07:54:42;;;;;;;11.88;4.55;;;;;;;25.48;39.54;100137.63;5074135;28;20142;-76
2022/08/13 07:57:08;;;;;;;11.98;3.65;;;;;;;25.50;39.96;100135.56;5074232;28;20020;-76
2022/08/13 07:59:36;;;;;;;9.05;3.35;;;;;;;25.52;39.96;100145.16;5070305;28;20028;-76
2022/08/13 08:02:04;;;;;;;9.07;2.78;;;;;;;25.54;39.67;100143.06;5070334;28;20013;-75
2022/08/13 08:04:30;;;;;;;6.40;3.28;;;;;;;25.57;39.57;100133.72;5070174;28;20025;-76
2022/08/13 08:06:57;;;;;;;11.10;2.95;;;;;;;25.59;39.08;100131.59;5076604;28;20052;-76
2022/08/13 08:09:26;;;;;;;6.88;2.75;;;;;;;25.60;39.14;100136.00;5070534;28;20039;-76
2022/08/13 08:14:37;;;;;;;9.60;3.03;;;;;;;25.62;38.97;100138.50;5070051;28;20067;-75
2022/08/13 08:17:05;;;;;;;7.05;2.90;;;;;;;25.64;38.78;100122.88;5086062;28;20028;-76
2022/08/13 08:19:32;;;;;;;5.43;2.65;;;;;;;25.63;39.09;100127.47;5084332;28;20138;-77
2022/08/13 08:22:03;;;;;;;9.27;2.40;;;;;;;25.63;39.11;100135.59;5088663;28;20025;-76
2022/08/13 08:24:30;;;;;;;6.18;2.78;;;;;;;25.63;38.83;100119.31;5089887;28;20074;-77
2022/08/13 08:26:57;;;;;;;8.70;2.75;;;;;;;25.61;38.75;100126.81;5082967;28;20028;-76
2022/08/13 08:29:23;;;;;;;6.22;2.53;;;;;;;25.64;38.65;100125.59;5069604;28;20029;-76
2022/08/13 08:31:50;;;;;;;6.90;2.65;;;;;;;25.62;38.54;100120.38;5073513;28;20086;-76
2022/08/13 08:34:18;;;;;;;9.70;2.65;;;;;;;25.61;39.02;100113.28;5078589;28;20100;-76
2022/08/13 08:36:43;;;;;;;8.07;2.42;;;;;;;25.62;38.89;100112.22;5089732;28;20179;-77
2022/08/13 08:44:42;;;;;;;7.57;2.80;;;;;;;25.63;38.88;100103.06;5073294;28;20130;-77
2022/08/13 08:47:08;;;;;;;5.95;3.30;;;;;;;25.64;39.12;100104.75;5069426;28;20033;-77
2022/08/13 08:49:35;;;;;;;9.40;3.30;;;;;;;25.65;39.22;100102.88;5071656;28;20074;-76
2022/08/13 08:52:02;;;;;;;4.63;2.60;;;;;;;25.68;39.29;100108.72;5075170;28;20025;-75
2022/08/13 08:54:29;;;;;;;4.82;2.47;;;;;;;25.69;39.54;100102.25;5078019;28;20027;-75
2022/08/13 08:56:57;;;;;;;5.78;2.97;;;;;;;25.69;39.51;100091.41;5089202;28;20036;-76
2022/08/13 08:59:39;;;;;;;5.75;2.50;;;;;;;25.71;39.63;100099.31;5084006;28;20017;-76
2022/08/13 09:02:27;;;;;;;12.45;3.10;;;;;;;25.71;39.67;100104.75;5079657;28;20016;-77
2022/08/13 09:04:56;;;;;;;6.65;2.63;;;;;;;25.71;39.65;100100.19;5073007;28;20013;-77
2022/08/13 09:07:24;;;;;;;5.20;2.75;;;;;;;25.72;39.60;100103.72;5078727;28;20105;-75
2022/08/13 09:09:58;;;;;;;6.95;3.00;;;;;;;25.73;39.66;100087.22;5074168;28;20062;-75
2022/08/13 09:12:28;;;;;;;3.97;2.42;;;;;;;25.74;39.65;100101.63;5068948;28;20228;-76
2022/08/13 09:14:56;;;;;;;6.68;3.10;;;;;;;25.74;39.40;100094.31;5068821;28;20020;-73
2022/08/13 09:17:22;;;;;;;4.53;2.53;;;;;;;25.75;39.27;100089.75;5068790;28;20246;-73
2022/08/13 09:19:48;;;;;;;4.90;2.55;;;;;;;25.75;39.55;100090.56;5072603;28;20025;-73
2022/08/13 09:22:19;;;;;;;5.32;2.47;;;;;;;25.76;39.27;100094.13;5068779;28;20119;-74
2022/08/13 09:24:46;;;;;;;8.63;2.72;;;;;;;25.75;39.42;100087.84;5072418;28;20095;-72
2022/08/13 09:27:16;;;;;;;8.70;2.60;;;;;;;25.76;39.52;100088.72;5068948;28;20031;-73
2022/08/13 09:29:42;;;;;;;3.08;2.33;;;;;;;25.76;39.44;100091.41;5072333;28;20240;-73
2022/08/13 09:32:09;;;;;;;8.70;2.65;;;;;;;25.77;39.09;100087.66;5068499;28;20237;-73
2022/08/13 09:34:39;;;;;;;9.90;2.70;;;;;;;25.78;38.75;100083.06;5068021;28;20214;-73
2022/08/13 09:37:07;;;;;;;11.93;3.15;;;;;;;25.80;38.47;100089.97;5073328;28;20028;-73
2022/08/13 09:39:36;;;;;;;6.35;2.90;;;;;;;25.81;38.76;100085.38;5068706;28;20013;-72
2022/08/13 09:42:12;;;;;;;5.97;2.30;;;;;;;25.80;38.40;100098.09;5083445;28;20028;-73
2022/08/13 09:44:41;;;;;;;6.20;2.47;;;;;;;25.79;38.34;100085.59;5088168;28;20028;-73
2022/08/13 09:47:11;;;;;;;8.27;2.72;;;;;;;25.80;38.71;100080.97;5088098;28;20096;-72
2022/08/13 09:49:37;;;;;;;6.38;2.78;;;;;;;25.80;38.76;100078.28;5085063;28;20027;-72
2022/08/13 09:52:03;;;;;;;5.32;2.50;;;;;;;25.79;38.52;100080.16;5068694;28;20029;-73
2022/08/13 09:54:29;;;;;;;3.53;2.40;;;;;;;25.78;39.00;100073.06;5068117;28;20066;-72
2022/08/13 09:56:58;;;;;;;8.60;3.22;;;;;;;25.79;38.50;100074.75;5068079;28;20032;-72
2022/08/13 09:59:24;;;;;;;5.32;2.55;;;;;;;25.81;38.41;100069.91;5071912;28;20228;-73
2022/08/13 10:01:51;;;;;;;7.75;2.78;;;;;;;25.82;37.92;100057.22;5068324;28;20021;-72
2022/08/13 10:04:20;;;;;;;7.05;2.50;;;;;;;25.84;37.84;100065.97;5071722;28;20020;-73
2022/08/13 10:06:45;;;;;;;8.82;3.28;;;;;;;25.82;37.71;100063.47;5072587;28;20032;-73
2022/08/13 10:09:12;;;;;;;10.07;3.63;;;;;;;25.83;37.62;100061.59;5087751;28;20046;-73
2022/08/13 10:11:38;;;;;;;7.15;2.78;;;;;;;25.82;37.69;100063.47;5084921;28;20032;-72
2022/08/13 10:14:03;;;;;;;3.95;2.53;;;;;;;25.82;37.57;100055.34;5072728;28;20166;-71
2022/08/13 10:16:28;;;;;;;5.63;2.55;;;;;;;25.84;37.68;100055.16;5086184;28;20048;-73
2022/08/13 10:18:55;;;;;;;5.20;2.92;;;;;;;25.85;37.79;100062.22;5075175;28;20056;-73
2022/08/13 10:21:21;;;;;;;6.38;2.72;;;;;;;25.86;37.58;100055.78;5067698;28;20223;-73
2022/08/13 10:23:46;;;;;;;8.05;3.13;;;;;;;25.88;37.68;100059.94;5067565;28;20028;-73
2022/08/13 10:26:12;;;;;;;7.35;2.97;;;;;;;25.90;37.85;100051.56;5067682;28;20051;-73
2022/08/13 10:28:37;;;;;;;6.80;2.70;;;;;;;25.90;37.94;100055.13;5067531;28;20119;-73
2022/08/13 10:31:08;;;;;;;14.95;3.72;;;;;;;25.92;37.42;100049.50;5067600;28;20055;-73
2022/08/13 10:33:34;;;;;;;7.80;2.67;;;;;;;25.93;37.73;100047.63;5067512;28;20021;-73
2022/08/13 10:36:42;;;;;;;7.43;2.72;;;;;;;25.93;37.35;100053.06;5080101;28;20024;-71
2022/08/13 10:39:08;;;;;;;8.43;2.75;;;;;;;25.94;37.72;100052.84;5085669;28;20259;-73
2022/08/13 10:41:33;;;;;;;8.55;3.42;;;;;;;25.97;37.22;100046.16;5067502;28;20028;-74
2022/08/13 10:44:02;;;;;;;11.00;3.88;;;;;;;25.98;37.41;100053.25;5067104;28;20257;-71
2022/08/13 10:46:30;;;;;;;4.97;3.28;;;;;;;26.01;37.22;100058.25;5066864;28;20028;-73
2022/08/13 10:48:58;;;;;;;10.90;3.17;;;;;;;26.00;37.07;100056.56;5068876;28;20095;-73
2022/08/13 10:51:24;;;;;;;9.15;4.00;;;;;;;26.01;37.18;100050.13;5068016;28;20088;-73
2022/08/13 10:53:55;;;;;;;7.13;3.55;;;;;;;26.01;37.26;100047.41;5067248;28;20103;-73
2022/08/13 10:56:22;;;;;;;5.93;2.90;;;;;;;26.01;37.42;100047.41;5067298;28;20025;-72
2022/08/13 10:58:48;;;;;;;7.20;3.15;;;;;;;26.01;37.17;100047.41;5073309;28;20268;-73
2022/08/13 11:01:15;;;;;;;7.70;3.35;;;;;;;26.01;37.48;100045.53;5067245;28;20036;-73
2022/08/13 11:03:44;;;;;;;6.82;3.50;;;;;;;26.00;37.95;100045.72;5067194;28;20021;-73
2022/08/13 11:06:11;;;;;;;6.18;2.75;;;;;;;26.00;37.84;100040.31;5067328;28;20017;-73
2022/08/13 11:08:37;;;;;;;7.65;3.28;;;;;;;25.98;38.19;100039.69;5076151;28;20041;-73
2022/08/13 11:11:08;;;;;;;7.47;3.20;;;;;;;26.00;37.93;100043.03;5074055;28;20107;-73
2022/08/13 11:13:36;;;;;;;11.30;3.33;;;;;;;26.00;37.64;100033.03;5078473;28;20096;-73
2022/08/13 11:16:05;;;;;;;8.25;3.00;;;;;;;26.01;37.64;100029.28;5068766;28;20051;-73
2022/08/13 11:18:32;;;;;;;9.45;3.30;;;;;;;26.02;37.39;100030.94;5067138;28;20025;-73
2022/08/13 11:21:07;;;;;;;7.18;3.22;;;;;;;26.03;37.55;100027.16;5070954;28;20024;-73
2022/08/13 11:23:34;;;;;;;6.47;2.90;;;;;;;26.03;37.69;100026.34;5079583;28;20137;-73
2022/08/13 11:26:00;;;;;;;5.25;3.13;;;;;;;26.03;37.80;100026.34;5077281;28;20188;-73
2022/08/13 11:28:26;;;;;;;10.95;3.28;;;;;;;26.03;37.61;100018.22;5067483;28;20046;-72
2022/08/13 11:30:53;;;;;;;7.78;3.35;;;;;;;26.04;37.53;100019.88;5070874;28;20226;-73
2022/08/13 11:33:24;;;;;;;8.10;2.60;;;;;;;26.05;37.55;100007.97;5067247;28;20104;-73
2022/08/13 11:35:52;;;;;;;10.00;2.97;;;;;;;26.06;37.67;100020.50;5066944;28;20025;-73
2022/08/13 11:38:20;;;;;;;5.28;3.13;;;;;;;26.07;37.16;100005.91;5086424;28;20027;-73
2022/08/13 11:40:48;;;;;;;6.35;2.42;;;;;;;26.08;37.67;100012.13;5071791;28;20025;-74
2022/08/13 11:43:14;;;;;;;6.38;2.95;;;;;;;26.08;37.80;100009.44;5066849;28;20031;-73
2022/08/13 11:45:39;;;;;;;6.35;2.92;;;;;;;26.08;37.64;100002.16;5066871;28;20194;-73
2022/08/13 11:48:05;;;;;;;6.85;3.05;;;;;;;26.10;37.64;100004.63;5081704;28;20063;-73